East Jamaica, Vermont
Current Conditions -  °F | °C
As of 8:54 PM on Thursday 20 Nov 2014 (Local Time) from KVSF Reporting Station
Clear Clear  
Wind Chill: 21°   Ceiling: Unl
Heat Index: 26°   Visibility: 10mi
Dew Point:   Wind: 5mph
Humidity: 49%   Direction: 270°W
Pressure: 29.87"   Gusts: NA
Location:  43.1008°N, 72.8076°W
Report Text: KVSF 210154Z AUTO 27004KT 10SM CLR M03/M13 A2987 RMK AO2 SLP125 T10331128
Loading
Personal Weather Stations






























Interactive Weather Map New forecast layout! Learn more

10-Day Weather Forecast

Advertisements
Track Severe Weather on mobile